»·PEaware :: N786SC L52-L88

N786SC :: L52-L88

FLIGHT INFORMATION

Flight Status: Arrived
Operator: Privately registered:
United States
More flights under this callsign
Pilot: Jereme M. (20698)
Aircraft: CESSNA 172 SKYHAWK
(C172)
More flights by this aircraft type
Origin: L52 Oceano Co
United States
Destination: L88 New Cuyama
United States
More flights between these airports :: More routes between these airports
Route: POZOE
File this flight plan on PilotEdge
Remarks: CAT-01
Altitude:
(Current/Filed)
5,500ft
Speed:
(Current/Filed)
110kts
Departed: 05-Oct-18 03:22 PM
Arrived: 05-Oct-18 03:57 PM
Distance/Time
Traveled:
47nm/0:35
Distance/Time
To Go:
Arrived

Flight Plot

Page will automatically refresh every two minutes.


Map Options




Map Legend


Flown Route
Filed Route
Departure Airport
Arrival Airport
Navaid (VOR, NDB)
Fix

Horizontal Profiles

Position Reports

Time Latitude Longitude Heading Altitude Ground
Speed
05-Oct-18 15:16 35.103321 -120.624548 202 18ft 0kts
05-Oct-18 15:17 35.103321 -120.624548 202 18ft 0kts
05-Oct-18 15:18 35.103321 -120.624548 202 18ft 0kts
05-Oct-18 15:19 35.103321 -120.624548 202 18ft 0kts
05-Oct-18 15:20 35.103314 -120.624552 201 18ft 1kts
05-Oct-18 15:21 35.101646 -120.623519 124 18ft 13kts
05-Oct-18 15:22 35.099443 -120.619541 90 18ft 0kts
05-Oct-18 15:23 35.099443 -120.619541 90 18ft 0kts
05-Oct-18 15:24 35.100926 -120.621136 303 18ft 56kts
05-Oct-18 15:25 35.107786 -120.643825 220 747ft 83kts
05-Oct-18 15:26 35.089290 -120.639518 137 1648ft 77kts
05-Oct-18 15:27 35.085989 -120.615751 73 2351ft 88kts
05-Oct-18 15:28 35.092977 -120.587581 72 3110ft 83kts
05-Oct-18 15:29 35.099657 -120.560831 72 3826ft 83kts
05-Oct-18 15:30 35.106452 -120.533542 72 4469ft 86kts
05-Oct-18 15:31 35.113520 -120.505090 72 5069ft 87kts
05-Oct-18 15:32 35.120704 -120.476151 73 5520ft 100kts
05-Oct-18 15:33 35.129511 -120.440365 73 5531ft 110kts
05-Oct-18 15:34 35.138263 -120.404727 73 5530ft 109kts
05-Oct-18 15:35 35.146995 -120.369159 73 5530ft 109kts
05-Oct-18 15:36 35.152983 -120.332949 83 5530ft 109kts
05-Oct-18 15:37 35.156902 -120.296163 82 5530ft 109kts
05-Oct-18 15:38 35.160947 -120.259391 82 5530ft 109kts
05-Oct-18 15:39 35.152442 -120.224674 116 5525ft 109kts
05-Oct-18 15:40 35.139337 -120.191226 115 5525ft 109kts
05-Oct-18 15:41 35.126250 -120.157784 115 5525ft 109kts
05-Oct-18 15:42 35.113157 -120.124332 115 5525ft 109kts
05-Oct-18 15:43 35.100072 -120.090903 115 5525ft 109kts
05-Oct-18 15:44 35.088219 -120.060621 115 5525ft 109kts
05-Oct-18 15:45 35.075128 -120.027178 115 5525ft 109kts
05-Oct-18 15:46 35.062042 -119.993747 115 5525ft 109kts
05-Oct-18 15:47 35.047979 -119.961021 118 5525ft 109kts
05-Oct-18 15:48 35.033474 -119.928494 118 5525ft 109kts
05-Oct-18 15:49 35.018045 -119.896479 120 5349ft 108kts
05-Oct-18 15:50 35.004115 -119.867675 120 4884ft 105kts
05-Oct-18 15:51 34.989382 -119.837222 120 4385ft 104kts
05-Oct-18 15:52 34.974694 -119.806833 120 3883ft 103kts
05-Oct-18 15:53 34.960551 -119.776273 118 3383ft 103kts
05-Oct-18 15:54 34.947928 -119.746489 111 3180ft 95kts
05-Oct-18 15:55 34.940567 -119.715919 103 3083ft 95kts
05-Oct-18 15:56 34.931459 -119.687281 124 3088ft 84kts
05-Oct-18 15:57 34.924231 -119.664461 25 3040ft 79kts
05-Oct-18 15:58 34.937278 -119.679121 297 2241ft 73kts
05-Oct-18 15:59 34.942091 -119.690650 315 2207ft 15kts
05-Oct-18 16:00 34.942708 -119.690757 25 2207ft 0kts
05-Oct-18 16:01 34.942707 -119.690758 25 2207ft 0kts
05-Oct-18 16:02 34.942707 -119.690758 25 2207ft 0kts
05-Oct-18 16:03 34.942707 -119.690758 25 2207ft 0kts
05-Oct-18 16:04 34.942707 -119.690758 25 2207ft 0kts
05-Oct-18 16:05 34.942707 -119.690758 25 2207ft 0kts
05-Oct-18 16:06 34.942707 -119.690758 25 2207ft 0kts
05-Oct-18 16:07 34.942707 -119.690758 25 2207ft 0kts
05-Oct-18 16:08 34.942707 -119.690758 25 2207ft 0kts
05-Oct-18 16:09 34.942707 -119.690758 25 2207ft 0kts
05-Oct-18 16:10 34.942707 -119.690758 25 2207ft 0kts

Navigation Log

Ident Type
Flight plan parsing failed, navigation log unavailable